Time;durP1;ratioP1;P1;durP2;ratioP2;P2;SDS_P1;SDS_P2;PMS_P1;PMS_P2;Temp;Humidity;BMP_temperature;BMP_pressure;BME280_temperature;BME280_humidity;BME280_pressure;Samples;Min_cycle;Max_cycle;Signal;HPM_P1;HPM_P2
2021/01/25 00:03:44;;;;;;;12.20;6.80;;;;;;;0.29;100.00;96688.90;3714992;78;43145;-20
2021/01/25 00:08:50;;;;;;;12.30;7.10;;;;;;;0.29;100.00;96690.22;3725741;79;43436;-20
2021/01/25 00:13:56;;;;;;;9.47;5.57;;;;;;;0.34;100.00;96685.83;3672222;80;43334;-20
2021/01/25 00:19:02;;;;;;;9.77;5.73;;;;;;;0.22;100.00;96687.80;3671827;81;44114;-21
2021/01/25 00:24:09;;;;;;;11.50;5.80;;;;;;;0.30;100.00;96688.75;3673024;80;44058;-21
2021/01/25 00:29:15;;;;;;;7.77;5.10;;;;;;;0.36;100.00;96678.58;3656398;81;43407;-20
2021/01/25 00:34:21;;;;;;;12.00;5.63;;;;;;;0.28;100.00;96681.45;3664187;81;44118;-20
2021/01/25 00:39:26;;;;;;;9.43;5.47;;;;;;;0.23;100.00;96670.93;3663944;79;44410;-20
2021/01/25 00:44:32;;;;;;;9.93;5.60;;;;;;;0.15;100.00;96671.63;3667638;80;44043;-20
2021/01/25 00:49:38;;;;;;;8.83;5.07;;;;;;;0.03;100.00;96664.29;3647180;81;44065;-20
2021/01/25 00:54:44;;;;;;;9.27;5.30;;;;;;;-0.02;100.00;96657.27;3612628;81;43017;-20
2021/01/25 00:59:49;;;;;;;9.73;5.43;;;;;;;-0.11;100.00;96661.58;3635744;81;44480;-20
2021/01/25 01:04:55;;;;;;;11.33;6.03;;;;;;;-0.21;100.00;96654.94;3635746;81;43698;-20
2021/01/25 01:10:01;;;;;;;9.97;5.63;;;;;;;-0.25;100.00;96659.32;3635430;80;43454;-20
2021/01/25 01:15:12;;;;;;;10.10;5.83;;;;;;;-0.35;100.00;96650.89;3639596;81;44022;-20
2021/01/25 01:20:18;;;;;;;9.93;5.67;;;;;;;-0.42;100.00;96655.06;3636258;81;43759;-20
2021/01/25 01:25:24;;;;;;;11.20;6.17;;;;;;;-0.55;100.00;96653.97;3639962;81;43384;-20
2021/01/25 01:30:30;;;;;;;10.53;5.50;;;;;;;-0.63;100.00;96649.84;3635600;81;43792;-19
2021/01/25 01:35:36;;;;;;;10.97;6.20;;;;;;;-0.69;100.00;96660.48;3640396;81;43690;-20
2021/01/25 01:40:43;;;;;;;11.23;5.80;;;;;;;-0.76;100.00;96658.00;3625919;80;44169;-19
2021/01/25 01:45:49;;;;;;;10.67;5.70;;;;;;;-0.85;100.00;96654.84;3635996;81;44038;-19
2021/01/25 01:50:56;;;;;;;11.93;5.77;;;;;;;-0.94;100.00;96657.80;3607994;81;44086;-19
2021/01/25 01:56:02;;;;;;;12.77;6.30;;;;;;;-0.97;100.00;96654.94;3613628;82;43310;-19
2021/01/25 02:01:08;;;;;;;12.07;6.37;;;;;;;-1.12;100.00;96651.00;3612815;82;43331;-19
2021/01/25 02:06:15;;;;;;;12.70;6.10;;;;;;;-1.16;100.00;96650.41;3612447;82;43702;-19
2021/01/25 02:11:21;;;;;;;14.53;5.97;;;;;;;-1.18;100.00;96659.44;3613130;81;44039;-19
2021/01/25 02:16:27;;;;;;;13.90;6.67;;;;;;;-1.41;100.00;96656.95;3691566;80;44271;-19
2021/01/25 02:21:34;;;;;;;12.73;6.23;;;;;;;-1.53;100.00;96659.30;3626409;81;43677;-19
2021/01/25 02:26:46;;;;;;;11.00;5.90;;;;;;;-1.61;100.00;96658.16;3695078;80;43460;-19
2021/01/25 02:31:53;;;;;;;12.60;6.20;;;;;;;-1.66;100.00;96651.09;3695860;79;43629;-19
2021/01/25 02:37:01;;;;;;;10.17;5.87;;;;;;;-1.72;100.00;96660.36;3696476;80;43379;-19
2021/01/25 02:42:09;;;;;;;11.80;6.40;;;;;;;-1.87;100.00;96658.52;3699942;79;44446;-18
2021/01/25 02:47:16;;;;;;;12.83;6.47;;;;;;;-1.96;100.00;96668.99;3696362;79;44047;-18
2021/01/25 02:52:23;;;;;;;15.13;6.20;;;;;;;-1.98;100.00;96668.28;3732181;78;42854;-18
2021/01/25 02:57:30;;;;;;;14.70;6.97;;;;;;;-2.08;100.00;96658.98;3727111;79;43706;-18
2021/01/25 03:02:37;;;;;;;14.87;6.50;;;;;;;-2.09;100.00;96662.58;3676058;80;43461;-18
2021/01/25 03:07:45;;;;;;;14.60;6.83;;;;;;;-2.11;100.00;96667.95;3670924;81;44045;-18
2021/01/25 03:12:51;;;;;;;13.17;6.33;;;;;;;-2.10;100.00;96668.81;3664249;81;44021;-18
2021/01/25 03:17:57;;;;;;;11.43;6.03;;;;;;;-2.15;100.00;96667.88;3663723;79;43714;-18
2021/01/25 03:23:03;;;;;;;13.50;6.27;;;;;;;-2.06;100.00;96667.61;3663270;80;43694;-18
2021/01/25 03:28:09;;;;;;;12.87;6.37;;;;;;;-2.06;100.00;96664.98;3664417;81;44102;-18
2021/01/25 03:33:15;;;;;;;14.50;6.57;;;;;;;-2.07;100.00;96668.08;3671202;80;43219;-18
2021/01/25 03:38:20;;;;;;;12.33;5.90;;;;;;;-2.14;100.00;96672.19;3664036;81;44013;-18
2021/01/25 03:43:26;;;;;;;12.20;6.33;;;;;;;-2.23;100.00;96675.09;3670784;80;44054;-18
2021/01/25 03:48:32;;;;;;;14.00;7.00;;;;;;;-2.24;100.00;96680.50;3661156;79;43358;-18
2021/01/25 03:53:38;;;;;;;15.57;7.10;;;;;;;-2.27;100.00;96679.42;3635053;81;44086;-18
2021/01/25 03:58:44;;;;;;;12.33;6.53;;;;;;;-2.32;100.00;96683.75;3635374;81;44065;-18
2021/01/25 04:03:50;;;;;;;11.93;5.90;;;;;;;-2.35;100.00;96686.13;3631167;81;44042;-18
2021/01/25 04:08:56;;;;;;;12.77;6.80;;;;;;;-2.38;100.00;96682.45;3634251;81;43558;-19
2021/01/25 04:14:02;;;;;;;11.17;5.87;;;;;;;-2.42;100.00;96685.46;3636549;81;44418;-18
2021/01/25 04:19:08;;;;;;;11.83;5.70;;;;;;;-2.50;100.00;96684.25;3636829;81;44053;-19
2021/01/25 04:24:14;;;;;;;10.17;5.53;;;;;;;-2.57;100.00;96681.77;3637669;80;44077;-19
2021/01/25 04:29:19;;;;;;;11.90;6.00;;;;;;;-2.53;100.00;96682.34;3636591;81;43699;-17
2021/01/25 04:34:25;;;;;;;12.67;5.77;;;;;;;-2.60;100.00;96689.91;3635688;81;44065;-18
2021/01/25 04:39:32;;;;;;;14.13;5.93;;;;;;;-2.64;100.00;96685.83;3636886;81;44092;-18
2021/01/25 04:44:39;;;;;;;12.17;5.90;;;;;;;-2.65;100.00;96689.45;3637708;81;44193;-18
2021/01/25 04:49:48;;;;;;;12.07;6.23;;;;;;;-2.70;100.00;96686.33;3624623;81;44208;-18
2021/01/25 04:54:56;;;;;;;13.43;5.87;;;;;;;-2.71;100.00;96687.28;3613392;81;44020;-18
2021/01/25 05:00:07;;;;;;;14.50;6.73;;;;;;;-2.68;100.00;96692.32;3613618;82;43165;-18
2021/01/25 05:05:11;;;;;;;13.77;6.27;;;;;;;-2.84;100.00;96686.93;3598581;81;43931;-18
2021/01/25 05:10:17;;;;;;;12.83;5.90;;;;;;;-2.90;100.00;96694.02;3696012;80;44119;-18
2021/01/25 05:15:28;;;;;;;13.63;6.17;;;;;;;-2.95;100.00;96692.20;3697256;79;43714;-18
2021/01/25 05:20:34;;;;;;;13.77;6.40;;;;;;;-2.86;100.00;96694.61;3695960;80;44185;-18
2021/01/25 05:25:41;;;;;;;15.83;7.03;;;;;;;-2.85;100.00;96697.11;3702911;79;43353;-18
2021/01/25 05:30:48;;;;;;;15.33;6.53;;;;;;;-2.80;100.00;96688.38;3686016;80;44087;-18
2021/01/25 05:35:56;;;;;;;15.60;6.07;;;;;;;-2.82;100.00;96696.02;3697352;80;43674;-18
2021/01/25 05:41:05;;;;;;;14.37;6.57;;;;;;;-2.84;100.00;96690.88;3698154;80;43330;-18
2021/01/25 05:46:13;;;;;;;12.87;6.47;;;;;;;-2.84;100.00;96692.20;3697144;80;43234;-18
2021/01/25 05:51:19;;;;;;;12.70;6.00;;;;;;;-2.87;100.00;96696.39;3714972;79;43754;-18
2021/01/25 05:56:25;;;;;;;15.40;7.17;;;;;;;-2.84;100.00;96704.06;3727867;78;43677;-18
2021/01/25 06:01:31;;;;;;;14.00;6.20;;;;;;;-2.88;100.00;96706.56;3732466;79;43306;-18
2021/01/25 06:06:37;;;;;;;13.67;6.53;;;;;;;-2.94;100.00;96699.98;3727795;79;43439;-18
2021/01/25 06:11:46;;;;;;;14.00;6.27;;;;;;;-2.95;100.00;96702.74;3716683;79;43980;-18
2021/01/25 06:16:59;;;;;;;14.03;6.03;;;;;;;-3.01;100.00;96706.70;3715284;78;43147;-18
2021/01/25 06:22:07;;;;;;;13.90;6.47;;;;;;;-2.98;100.00;96717.46;3726990;79;44210;-18
2021/01/25 06:27:17;;;;;;;13.90;6.13;;;;;;;-3.00;100.00;96739.16;3670991;81;43333;-18
2021/01/25 06:32:24;;;;;;;12.47;6.10;;;;;;;-3.01;100.00;96740.94;3671798;79;43383;-18
2021/01/25 06:37:34;;;;;;;14.90;5.97;;;;;;;-3.08;100.00;96748.97;3662918;81;43721;-18
2021/01/25 06:42:42;;;;;;;13.13;5.90;;;;;;;-3.10;100.00;96753.02;3664987;81;44016;-19
2021/01/25 06:47:50;;;;;;;11.57;5.63;;;;;;;-3.15;100.00;96756.50;3664559;81;44030;-19
2021/01/25 06:52:58;;;;;;;14.37;6.87;;;;;;;-3.18;100.00;96760.67;3647259;81;43734;-18
2021/01/25 06:58:09;;;;;;;14.67;6.57;;;;;;;-3.24;100.00;96775.64;3647086;80;44046;-18
2021/01/25 07:03:22;;;;;;;14.10;5.90;;;;;;;-3.28;100.00;96778.13;3625045;80;44059;-18
2021/01/25 07:08:29;;;;;;;13.40;6.80;;;;;;;-3.37;100.00;96779.66;3620898;81;43684;-24
2021/01/25 07:13:36;;;;;;;13.10;6.67;;;;;;;-3.32;100.00;96784.57;3637282;81;44075;-17
2021/01/25 07:18:44;;;;;;;13.77;6.50;;;;;;;-3.38;100.00;96795.09;3637338;80;44036;-18
2021/01/25 07:23:51;;;;;;;15.87;6.60;;;;;;;-3.40;100.00;96798.30;3638739;81;43716;-17
2021/01/25 07:28:58;;;;;;;10.90;5.80;;;;;;;-3.29;100.00;96804.09;3637552;81;44025;-17
2021/01/25 07:34:04;;;;;;;11.73;5.50;;;;;;;-3.28;100.00;96813.68;3641957;80;44048;-18
2021/01/25 07:39:12;;;;;;;12.00;5.80;;;;;;;-3.19;100.00;96819.57;3637635;81;43697;-17
2021/01/25 07:44:18;;;;;;;12.60;6.20;;;;;;;-3.08;100.00;96824.50;3637032;81;44019;-17
2021/01/25 07:49:28;;;;;;;10.97;5.20;;;;;;;-2.93;100.00;96836.53;3637428;81;42918;-17
2021/01/25 07:54:34;;;;;;;11.03;5.53;;;;;;;-2.81;100.00;96831.64;3667278;80;43714;-18
2021/01/25 07:59:40;;;;;;;11.90;5.47;;;;;;;-2.71;100.00;96841.48;3666851;81;42808;-17
2021/01/25 08:04:48;;;;;;;11.27;5.73;;;;;;;-2.60;100.00;96840.17;3666530;80;44989;-18
2021/01/25 08:09:56;;;;;;;12.53;5.90;;;;;;;-2.50;100.00;96841.14;3664060;79;43347;-18
2021/01/25 08:15:10;;;;;;;11.73;6.20;;;;;;;-2.46;100.00;96841.73;3656637;80;43666;-17
2021/01/25 08:20:18;;;;;;;13.53;6.03;;;;;;;-2.43;100.00;96845.95;3689998;78;137880;-17
2021/01/25 08:25:26;;;;;;;11.37;5.40;;;;;;;-2.42;100.00;96845.00;3799657;77;44019;-18
2021/01/25 08:30:38;;;;;;;12.00;5.73;;;;;;;-2.26;100.00;96851.23;3879633;76;43267;-18
2021/01/25 08:35:57;;;;;;;11.57;5.70;;;;;;;-2.20;100.00;96852.05;3869463;76;44002;-18
2021/01/25 08:41:08;;;;;;;10.87;5.20;;;;;;;-2.00;100.00;96851.81;3868184;76;44093;-17
2021/01/25 08:46:16;;;;;;;11.03;5.57;;;;;;;-1.86;100.00;96865.22;3865575;76;44208;-18
2021/01/25 08:51:31;;;;;;;10.77;5.50;;;;;;;-1.73;100.00;96867.25;3867987;76;43686;-19
2021/01/25 08:56:39;;;;;;;11.77;5.93;;;;;;;-1.61;100.00;96870.72;3859523;76;43357;-19
2021/01/25 09:01:46;;;;;;;9.53;4.97;;;;;;;-1.55;100.00;96878.13;3870665;76;44002;-17
2021/01/25 09:06:53;;;;;;;10.40;5.10;;;;;;;-1.52;100.00;96874.39;3864520;76;43716;-18
2021/01/25 09:11:58;;;;;;;10.17;5.30;;;;;;;-1.43;100.00;96882.06;3880136;76;44354;-18
2021/01/25 09:17:05;;;;;;;11.30;5.67;;;;;;;-1.35;100.00;96884.91;3870469;76;44605;-18
2021/01/25 09:22:13;;;;;;;10.10;5.30;;;;;;;-1.36;100.00;96883.73;3853746;76;44413;-18
2021/01/25 09:27:19;;;;;;;9.00;5.13;;;;;;;-1.36;100.00;96892.52;3809387;76;43725;-19
2021/01/25 09:32:24;;;;;;;8.37;4.90;;;;;;;-1.23;100.00;96897.63;3793312;77;43334;-18
2021/01/25 09:37:30;;;;;;;11.40;5.97;;;;;;;-1.12;100.00;96896.76;3800014;77;44929;-18
2021/01/25 09:42:36;;;;;;;9.33;5.73;;;;;;;-1.02;100.00;96904.28;3792805;77;44472;-18
2021/01/25 09:47:44;;;;;;;9.27;5.40;;;;;;;-0.92;100.00;96911.45;3807081;77;44350;-18
2021/01/25 09:52:50;;;;;;;8.93;4.97;;;;;;;-0.76;100.00;96925.06;3820742;77;43272;-18
2021/01/25 09:57:56;;;;;;;9.10;5.50;;;;;;;-0.85;100.00;96925.83;3798231;77;44132;-19
2021/01/25 10:03:02;;;;;;;11.03;5.43;;;;;;;-0.71;100.00;96932.14;3802516;77;44025;-19
2021/01/25 10:08:08;;;;;;;10.80;5.83;;;;;;;-0.52;100.00;96930.59;3804828;77;44016;-19
2021/01/25 10:13:15;;;;;;;10.50;6.00;;;;;;;-0.55;100.00;96938.81;3790051;77;43998;-19
2021/01/25 10:18:21;;;;;;;9.47;5.67;;;;;;;-0.34;100.00;96948.91;3800788;77;44287;-19
2021/01/25 10:23:28;;;;;;;9.73;5.23;;;;;;;-0.27;100.00;96947.91;3789155;77;43716;-19
2021/01/25 10:28:34;;;;;;;10.37;5.53;;;;;;;-0.24;100.00;96955.59;3817616;77;43749;-19
2021/01/25 10:33:39;;;;;;;10.23;5.83;;;;;;;-0.10;100.00;96961.03;3795559;77;43384;-19
2021/01/25 10:38:48;;;;;;;8.40;5.20;;;;;;;-0.08;100.00;96964.39;3808922;77;43717;-19
2021/01/25 10:43:53;;;;;;;10.13;5.60;;;;;;;0.13;100.00;96974.11;3802045;77;44125;-20
2021/01/25 10:48:59;;;;;;;9.13;5.90;;;;;;;0.11;100.00;96970.75;3797819;77;44126;-19
2021/01/25 10:54:06;;;;;;;13.20;7.30;;;;;;;0.07;100.00;96971.97;3800466;77;43995;-19
2021/01/25 10:59:12;;;;;;;11.60;5.97;;;;;;;0.22;100.00;96971.99;3801293;77;42729;-19
2021/01/25 11:04:17;;;;;;;10.47;6.20;;;;;;;0.22;100.00;96978.61;3795282;77;44085;-19
2021/01/25 11:09:24;;;;;;;9.00;5.60;;;;;;;0.32;100.00;96975.16;3800980;77;42691;-20
2021/01/25 11:14:29;;;;;;;10.77;6.70;;;;;;;0.44;100.00;96983.37;3793568;77;43320;-19
2021/01/25 11:19:35;;;;;;;9.00;5.40;;;;;;;0.44;100.00;96978.08;3804769;77;44417;-19
2021/01/25 11:24:41;;;;;;;12.57;6.40;;;;;;;0.34;100.00;96974.09;3799458;77;44493;-19
2021/01/25 11:29:47;;;;;;;10.47;6.10;;;;;;;0.39;100.00;96978.98;3801071;77;44054;-20
2021/01/25 11:34:53;;;;;;;8.60;5.77;;;;;;;0.50;100.00;96980.20;3792409;77;43346;-19
2021/01/25 11:39:59;;;;;;;9.77;5.90;;;;;;;0.53;100.00;96978.59;3802510;77;44003;-20
2021/01/25 11:45:06;;;;;;;10.83;5.70;;;;;;;0.60;100.00;96977.11;3800134;77;43721;-20
2021/01/25 11:50:14;;;;;;;9.53;6.23;;;;;;;0.55;100.00;96987.25;3795947;77;44083;-20
2021/01/25 11:55:20;;;;;;;10.20;5.80;;;;;;;0.57;100.00;96990.61;3771744;77;43991;-20
2021/01/25 12:00:28;;;;;;;10.23;6.53;;;;;;;0.70;100.00;96990.87;3761348;78;43364;-20
2021/01/25 12:05:34;;;;;;;11.47;6.03;;;;;;;0.75;100.00;96994.79;3750724;78;43686;-19
2021/01/25 12:10:40;;;;;;;8.67;5.60;;;;;;;0.81;100.00;96991.26;3648927;80;44022;-20
2021/01/25 12:15:45;;;;;;;10.83;6.37;;;;;;;0.74;100.00;96997.09;3598773;81;44059;-20
2021/01/25 12:20:52;;;;;;;10.20;6.00;;;;;;;0.73;100.00;96998.05;3652418;80;43372;-20
2021/01/25 12:25:58;;;;;;;11.73;6.50;;;;;;;0.73;100.00;97001.20;3656709;80;43382;-20
2021/01/25 12:31:06;;;;;;;9.10;5.43;;;;;;;0.73;100.00;97001.20;3612990;81;44053;-20
2021/01/25 12:36:13;;;;;;;10.40;6.47;;;;;;;0.57;100.00;97009.66;3587641;81;43716;-20
2021/01/25 12:41:19;;;;;;;10.63;6.53;;;;;;;0.56;100.00;97012.78;3647008;80;43365;-20
2021/01/25 12:46:25;;;;;;;10.30;6.37;;;;;;;0.48;100.00;97012.62;3648625;80;43734;-20
2021/01/25 12:51:31;;;;;;;11.07;6.13;;;;;;;0.58;100.00;97016.14;3655981;80;43720;-20
2021/01/25 12:56:37;;;;;;;10.90;6.47;;;;;;;0.59;100.00;97015.64;3625207;80;43596;-21
2021/01/25 13:01:43;;;;;;;9.93;6.10;;;;;;;0.60;100.00;97014.20;3653867;80;44018;-20
2021/01/25 13:06:49;;;;;;;12.47;6.67;;;;;;;0.60;100.00;97025.27;3663943;80;43698;-21
2021/01/25 13:11:56;;;;;;;10.23;6.60;;;;;;;0.64;100.00;97032.50;3667770;80;43357;-22
2021/01/25 13:17:02;;;;;;;11.60;6.50;;;;;;;0.56;100.00;97031.83;3659936;80;43673;-22
2021/01/25 13:22:08;;;;;;;11.50;6.23;;;;;;;0.41;100.00;97039.30;3662565;80;43685;-22
2021/01/25 13:27:14;;;;;;;10.47;6.17;;;;;;;0.40;100.00;97041.59;3670246;80;44102;-22
2021/01/25 13:32:20;;;;;;;12.07;7.00;;;;;;;0.37;100.00;97042.67;3679014;80;42927;-21
2021/01/25 13:37:26;;;;;;;11.80;7.33;;;;;;;0.39;100.00;97053.16;3685022;80;44053;-20
2021/01/25 13:42:32;;;;;;;11.90;7.00;;;;;;;0.23;100.00;97057.60;3665144;79;44038;-20
2021/01/25 13:47:38;;;;;;;13.80;8.07;;;;;;;0.20;100.00;97063.97;3670371;80;44094;-20
2021/01/25 13:52:45;;;;;;;13.50;7.47;;;;;;;0.16;100.00;97066.55;3664930;79;43219;-20
2021/01/25 13:57:50;;;;;;;12.97;7.40;;;;;;;0.09;100.00;97063.58;3684381;80;44135;-20
2021/01/25 14:02:56;;;;;;;12.63;7.30;;;;;;;-0.03;100.00;97070.72;3672756;79;43721;-20
2021/01/25 14:08:03;;;;;;;14.80;7.30;;;;;;;-0.08;100.00;97075.58;3684216;80;44070;-20
2021/01/25 14:13:08;;;;;;;14.83;8.17;;;;;;;-0.07;100.00;97080.38;3686393;79;44200;-20
2021/01/25 14:18:15;;;;;;;14.77;7.23;;;;;;;-0.02;100.00;97092.27;3683192;79;43724;-20
2021/01/25 14:23:23;;;;;;;13.80;7.57;;;;;;;0.06;100.00;97090.80;3677460;79;43459;-20
2021/01/25 14:28:29;;;;;;;14.80;7.53;;;;;;;0.05;100.00;97103.19;3693595;80;44052;-20
2021/01/25 14:33:36;;;;;;;13.90;7.70;;;;;;;0.05;100.00;97105.83;3669962;79;43717;-21
2021/01/25 14:38:42;;;;;;;15.57;7.40;;;;;;;-0.02;100.00;97110.80;3676591;79;43357;-20
2021/01/25 14:43:50;;;;;;;16.23;8.60;;;;;;;-0.11;100.00;97112.88;3679974;79;44782;-20
2021/01/25 14:48:56;;;;;;;15.63;8.07;;;;;;;-0.07;100.00;97125.38;3679983;79;43342;-21
2021/01/25 14:54:04;;;;;;;15.03;8.67;;;;;;;-0.09;100.00;97125.98;3657824;79;42829;-20
2021/01/25 14:59:10;;;;;;;14.47;8.10;;;;;;;-0.14;100.00;97131.66;3683463;80;43442;-20
2021/01/25 15:04:17;;;;;;;15.83;8.57;;;;;;;-0.21;100.00;97138.44;3662362;79;44066;-20
2021/01/25 15:09:23;;;;;;;16.27;8.27;;;;;;;-0.26;100.00;97142.78;3684445;79;44081;-21
2021/01/25 15:14:29;;;;;;;14.80;8.23;;;;;;;-0.29;100.00;97148.81;3699373;80;44025;-21
2021/01/25 15:19:34;;;;;;;15.93;8.53;;;;;;;-0.26;100.00;97147.22;3695259;79;43360;-21
2021/01/25 15:24:40;;;;;;;15.97;8.70;;;;;;;-0.35;100.00;97155.41;3718454;79;44184;-20
2021/01/25 15:29:46;;;;;;;14.53;7.73;;;;;;;-0.33;100.00;97157.45;3742513;79;44046;-21
2021/01/25 15:34:52;;;;;;;14.77;8.10;;;;;;;-0.39;100.00;97171.20;3733003;79;43294;-21
2021/01/25 15:40:02;;;;;;;14.87;8.37;;;;;;;-0.47;100.00;97177.92;3715761;79;42886;-21
2021/01/25 15:45:12;;;;;;;14.33;8.13;;;;;;;-0.54;100.00;97183.36;3712718;79;44448;-21
2021/01/25 15:50:21;;;;;;;14.27;8.63;;;;;;;-0.56;100.00;97192.39;3728616;79;43394;-21
2021/01/25 15:55:28;;;;;;;16.53;9.47;;;;;;;-0.57;100.00;97198.64;3738893;76;410373;-21
2021/01/25 16:00:34;;;;;;;16.70;7.77;;;;;;;-0.69;100.00;97205.73;3761073;78;43995;-20
2021/01/25 16:05:40;;;;;;;16.37;8.37;;;;;;;-0.72;100.00;97221.36;3757393;78;44130;-21
2021/01/25 16:10:46;;;;;;;15.40;8.67;;;;;;;-0.71;100.00;97229.66;3741391;78;44065;-21
2021/01/25 16:15:54;;;;;;;16.80;8.87;;;;;;;-0.72;100.00;97229.79;3744814;78;43677;-21
2021/01/25 16:21:01;;;;;;;15.37;8.77;;;;;;;-0.75;100.00;97245.39;3758547;78;43386;-20
2021/01/25 16:26:10;;;;;;;18.10;9.50;;;;;;;-0.78;100.00;97249.13;3749017;78;43523;-20
2021/01/25 16:31:16;;;;;;;14.77;7.93;;;;;;;-0.83;100.00;97254.41;3763125;78;43298;-20
2021/01/25 16:36:24;;;;;;;15.93;8.77;;;;;;;-0.83;100.00;97255.27;3880953;76;43492;-20
2021/01/25 16:41:30;;;;;;;15.60;9.20;;;;;;;-0.86;100.00;97263.43;3835830;76;43703;-20
2021/01/25 16:46:35;;;;;;;17.53;10.17;;;;;;;-0.85;100.00;97266.91;3845183;76;43470;-20
2021/01/25 16:51:41;;;;;;;19.90;10.40;;;;;;;-0.87;100.00;97274.11;3844443;76;43698;-20
2021/01/25 16:56:48;;;;;;;17.80;9.23;;;;;;;-0.88;100.00;97271.13;3857769;76;44152;-20
2021/01/25 17:01:54;;;;;;;17.10;8.80;;;;;;;-0.94;100.00;97283.84;3845163;76;44243;-19
2021/01/25 17:07:00;;;;;;;19.23;9.73;;;;;;;-0.99;100.00;97291.27;3859302;76;43728;-19
2021/01/25 17:12:07;;;;;;;17.23;9.77;;;;;;;-1.05;100.00;97289.11;3845334;76;44743;-19
2021/01/25 17:17:13;;;;;;;20.03;10.37;;;;;;;-1.07;100.00;97296.80;3801966;77;43703;-19
2021/01/25 17:22:19;;;;;;;18.87;10.07;;;;;;;-1.13;100.00;97306.86;3703519;79;43357;-19
2021/01/25 17:27:25;;;;;;;20.47;10.83;;;;;;;-1.19;100.00;97313.09;3786457;78;43280;-19
2021/01/25 17:32:31;;;;;;;18.63;10.23;;;;;;;-1.28;100.00;97310.64;3851941;76;43078;-19
2021/01/25 17:37:38;;;;;;;20.47;11.03;;;;;;;-1.32;100.00;97319.77;3847421;76;44043;-19
2021/01/25 17:42:44;;;;;;;18.20;10.43;;;;;;;-1.37;100.00;97331.15;3837927;76;43722;-19
2021/01/25 17:47:51;;;;;;;29.73;16.23;;;;;;;-1.46;100.00;97326.92;3840470;76;44075;-19
2021/01/25 17:52:58;;;;;;;35.00;19.50;;;;;;;-1.52;100.00;97335.77;3820841;76;43719;-19
2021/01/25 17:58:04;;;;;;;29.10;15.87;;;;;;;-1.56;100.00;97347.87;3845217;76;43673;-19
2021/01/25 18:03:10;;;;;;;32.77;16.67;;;;;;;-1.61;100.00;97346.52;3839947;76;44077;-19
2021/01/25 18:08:17;;;;;;;29.70;16.97;;;;;;;-1.66;100.00;97356.09;3855347;76;44077;-19
2021/01/25 18:13:24;;;;;;;35.10;17.93;;;;;;;-1.72;100.00;97360.52;3847132;76;44828;-19
2021/01/25 18:18:29;;;;;;;28.17;14.47;;;;;;;-1.82;100.00;97364.28;3865763;76;44065;-19
2021/01/25 18:23:36;;;;;;;24.90;14.17;;;;;;;-1.86;100.00;97366.30;3853940;76;43433;-19
2021/01/25 18:28:42;;;;;;;23.10;13.00;;;;;;;-1.88;100.00;97374.80;3827182;76;44023;-20
2021/01/25 18:39:48;;;;;;;23.80;11.50;;;;;;;-2.05;100.00;97384.38;3814365;76;26475;-18
2021/01/25 18:44:54;;;;;;;21.53;11.40;;;;;;;-2.09;100.00;97382.44;3777477;77;44140;-19
2021/01/25 18:50:00;;;;;;;20.23;11.87;;;;;;;-2.12;100.00;97390.59;3814612;76;43987;-19
2021/01/25 18:55:08;;;;;;;26.27;12.43;;;;;;;-2.18;100.00;97400.23;3852148;76;43480;-19
2021/01/25 19:00:17;;;;;;;21.57;11.77;;;;;;;-2.29;100.00;97407.56;3837327;76;43649;-19
2021/01/25 19:05:24;;;;;;;22.47;12.23;;;;;;;-2.35;100.00;97417.23;3827238;76;44481;-19
2021/01/25 19:10:31;;;;;;;20.57;10.80;;;;;;;-2.44;100.00;97423.14;3859526;76;43378;-19
2021/01/25 19:15:39;;;;;;;20.90;11.60;;;;;;;-2.43;100.00;97428.80;3851077;76;43698;-19
2021/01/25 19:20:46;;;;;;;25.70;12.17;;;;;;;-2.42;100.00;97438.39;3841294;76;43357;-19
2021/01/25 19:25:52;;;;;;;17.83;10.70;;;;;;;-2.45;100.00;97447.83;3851616;76;43723;-19
2021/01/25 19:30:58;;;;;;;22.27;10.67;;;;;;;-2.52;100.00;97450.03;3870239;76;44127;-19
2021/01/25 19:36:06;;;;;;;23.63;11.97;;;;;;;-2.56;100.00;97452.49;3878513;76;44050;-19
2021/01/25 19:41:11;;;;;;;23.70;13.27;;;;;;;-2.58;100.00;97463.16;3848340;76;43546;-19
2021/01/25 19:46:19;;;;;;;29.83;14.87;;;;;;;-2.65;100.00;97471.95;3849689;76;43722;-19
2021/01/25 19:51:25;;;;;;;31.67;15.80;;;;;;;-2.68;100.00;97481.86;3857801;76;43703;-19
2021/01/25 19:56:34;;;;;;;29.43;15.53;;;;;;;-2.70;100.00;97485.06;3808233;76;44005;-19
2021/01/25 20:01:39;;;;;;;26.47;14.87;;;;;;;-2.72;100.00;97500.99;3825003;76;44146;-19
2021/01/25 20:06:46;;;;;;;31.63;15.03;;;;;;;-2.77;100.00;97500.92;3833558;76;43070;-19
2021/01/25 20:11:53;;;;;;;26.90;14.73;;;;;;;-2.79;100.00;97511.09;3839006;76;44046;-19
2021/01/25 20:17:01;;;;;;;26.53;14.67;;;;;;;-2.82;100.00;97527.55;3856385;76;44011;-19
2021/01/25 20:22:08;;;;;;;27.87;13.67;;;;;;;-2.91;100.00;97535.61;3850902;76;43685;-19
2021/01/25 20:27:17;;;;;;;30.40;13.73;;;;;;;-2.99;100.00;97543.14;3817752;76;44042;-19
2021/01/25 20:32:23;;;;;;;23.40;12.57;;;;;;;-3.10;100.00;97538.57;3852453;76;44579;-19
2021/01/25 20:37:29;;;;;;;22.73;11.67;;;;;;;-3.13;100.00;97552.80;3844625;76;44058;-19
2021/01/25 20:42:35;;;;;;;23.73;12.73;;;;;;;-3.17;100.00;97554.37;3865086;76;42986;-19
2021/01/25 20:47:41;;;;;;;24.60;11.83;;;;;;;-3.26;100.00;97559.77;3866336;76;44049;-19
2021/01/25 20:52:48;;;;;;;23.43;11.70;;;;;;;-3.27;100.00;97562.03;3841989;76;44895;-19
2021/01/25 20:57:54;;;;;;;21.37;12.00;;;;;;;-3.29;100.00;97573.12;3834694;76;44228;-18
2021/01/25 21:03:00;;;;;;;21.10;10.27;;;;;;;-3.30;100.00;97575.38;3844540;76;43516;-19
2021/01/25 21:08:07;;;;;;;22.07;11.33;;;;;;;-3.26;100.00;97578.21;3831136;76;44022;-17
2021/01/25 21:13:14;;;;;;;24.07;11.90;;;;;;;-3.26;100.00;97582.99;3825317;76;44208;-18
2021/01/25 21:18:22;;;;;;;23.60;12.30;;;;;;;-3.24;100.00;97596.09;3826819;76;44065;-18
2021/01/25 21:23:29;;;;;;;20.80;11.40;;;;;;;-3.29;100.00;97588.93;3823182;76;42866;-18
2021/01/25 21:28:36;;;;;;;23.60;12.63;;;;;;;-3.31;100.00;97600.02;3821010;76;43301;-18
2021/01/25 21:33:43;;;;;;;23.23;12.10;;;;;;;-3.33;100.00;97605.40;3816999;76;44145;-18
2021/01/25 21:38:50;;;;;;;21.40;11.30;;;;;;;-3.41;100.00;97611.13;3836116;76;43563;-19
2021/01/25 21:43:55;;;;;;;21.87;10.37;;;;;;;-3.45;100.00;97614.88;3798957;76;44088;-19
2021/01/25 21:49:01;;;;;;;20.93;10.40;;;;;;;-3.44;100.00;97617.89;3758724;77;42354;-19
2021/01/25 21:54:08;;;;;;;19.80;10.77;;;;;;;-3.45;100.00;97620.15;3791769;76;44105;-19
2021/01/25 21:59:14;;;;;;;19.60;10.47;;;;;;;-3.39;100.00;97629.46;3803630;76;43497;-18
2021/01/25 22:04:19;;;;;;;20.70;11.57;;;;;;;-3.42;100.00;97634.45;3826070;76;44135;-19
2021/01/25 22:09:25;;;;;;;21.57;11.03;;;;;;;-3.42;100.00;97637.09;3848648;76;44151;-19
2021/01/25 22:14:31;;;;;;;20.40;10.37;;;;;;;-3.41;100.00;97639.27;3840397;75;42982;-19
2021/01/25 22:19:37;;;;;;;22.90;10.70;;;;;;;-3.40;100.00;97635.66;3831977;76;44034;-19
2021/01/25 22:24:44;;;;;;;19.87;10.80;;;;;;;-3.35;100.00;97647.27;3846552;75;44212;-19
2021/01/25 22:29:50;;;;;;;19.57;10.80;;;;;;;-3.35;100.00;97649.91;3838514;76;44407;-19
2021/01/25 22:34:57;;;;;;;36.77;17.57;;;;;;;-3.35;100.00;97656.48;3842882;75;43698;-19
2021/01/25 22:40:05;;;;;;;24.50;11.13;;;;;;;-3.35;100.00;97658.63;3851381;76;44439;-19
2021/01/25 22:45:15;;;;;;;21.70;11.90;;;;;;;-3.25;100.00;97668.98;3834740;75;44503;-19
2021/01/25 22:50:22;;;;;;;22.97;11.77;;;;;;;-3.21;100.00;97665.69;3842309;76;44035;-19
2021/01/25 22:55:29;;;;;;;21.20;11.23;;;;;;;-3.15;100.00;97674.55;3835930;75;44461;-19
2021/01/25 23:00:38;;;;;;;22.33;11.90;;;;;;;-3.10;100.00;97677.73;3830362;75;43953;-19
2021/01/25 23:05:45;;;;;;;23.83;11.13;;;;;;;-3.05;100.00;97680.08;3816362;76;44230;-19
2021/01/25 23:10:52;;;;;;;17.97;10.53;;;;;;;-3.01;100.00;97672.86;3829443;76;44087;-19
2021/01/25 23:16:02;;;;;;;18.83;10.47;;;;;;;-2.98;100.00;97676.59;3818636;76;43447;-19
2021/01/25 23:21:11;;;;;;;22.93;11.97;;;;;;;-3.05;100.00;97668.70;3823575;76;44677;-19
2021/01/25 23:26:22;;;;;;;22.33;10.97;;;;;;;-3.10;100.00;97667.67;3811667;76;43325;-19
2021/01/25 23:31:29;;;;;;;20.47;11.10;;;;;;;-3.15;100.00;97672.36;3833545;76;43480;-19
2021/01/25 23:36:36;;;;;;;21.50;11.40;;;;;;;-3.26;100.00;97674.36;3821852;76;44227;-19